Time;durP1;ratioP1;P1;durP2;ratioP2;P2;SDS_P1;SDS_P2;PMS_P1;PMS_P2;Temp;Humidity;BMP_temperature;BMP_pressure;BME280_temperature;BME280_humidity;BME280_pressure;Samples;Min_cycle;Max_cycle;Signal;HPM_P1;HPM_P2
2023/12/31 00:00:41;;;;;;;2.90;2.00;;;10.10;99.90;;;;;;5096079;28;20221;-73
2023/12/31 00:03:07;;;;;;;3.27;1.87;;;10.10;99.90;;;;;;5095802;28;20594;-73
2023/12/31 00:05:33;;;;;;;5.77;3.63;;;10.10;99.90;;;;;;5095634;28;20627;-73
2023/12/31 00:07:59;;;;;;;2.73;2.40;;;10.10;99.90;;;;;;5077611;28;20179;-74
2023/12/31 00:10:25;;;;;;;4.03;1.60;;;10.10;99.90;;;;;;5094646;28;20241;-72
2023/12/31 00:12:51;;;;;;;2.30;2.00;;;10.00;99.90;;;;;;5095452;28;20579;-74
2023/12/31 00:15:16;;;;;;;1.80;1.67;;;10.00;99.90;;;;;;5095683;28;20179;-74
2023/12/31 00:17:42;;;;;;;4.33;1.60;;;10.00;99.90;;;;;;5095505;28;20172;-73
2023/12/31 00:20:08;;;;;;;1.77;1.67;;;10.00;99.90;;;;;;5095449;28;20164;-74
2023/12/31 00:22:34;;;;;;;2.93;2.40;;;10.00;99.90;;;;;;5077302;28;20215;-73
2023/12/31 00:24:59;;;;;;;3.40;2.40;;;10.00;99.90;;;;;;5095029;28;20180;-73
2023/12/31 00:27:25;;;;;;;2.87;2.60;;;10.00;99.90;;;;;;5095367;28;20172;-74
2023/12/31 00:29:50;;;;;;;2.23;1.60;;;10.00;99.90;;;;;;5077223;28;20234;-73
2023/12/31 00:32:16;;;;;;;3.80;2.20;;;9.90;99.90;;;;;;5095337;28;20572;-73
2023/12/31 00:34:42;;;;;;;1.70;1.60;;;9.90;99.90;;;;;;5095130;28;20187;-73
2023/12/31 00:37:07;;;;;;;2.00;1.90;;;10.00;99.90;;;;;;5095101;28;20512;-73
2023/12/31 00:39:33;;;;;;;2.67;1.50;;;9.90;99.90;;;;;;5076695;28;20266;-73
2023/12/31 00:41:59;;;;;;;6.97;2.80;;;9.90;99.90;;;;;;5095263;28;20181;-73
2023/12/31 00:44:24;;;;;;;2.10;1.90;;;9.90;99.90;;;;;;5095044;28;20200;-73
2023/12/31 00:46:50;;;;;;;1.87;1.77;;;9.90;99.90;;;;;;5076965;28;20693;-73
2023/12/31 00:49:16;;;;;;;2.93;1.87;;;9.90;99.90;;;;;;5095050;28;20211;-74
2023/12/31 00:51:42;;;;;;;2.90;1.80;;;9.90;99.90;;;;;;5095527;28;20175;-73
2023/12/31 00:54:07;;;;;;;3.20;2.00;;;9.90;99.90;;;;;;5094832;28;20171;-73
2023/12/31 00:56:33;;;;;;;2.20;1.87;;;9.90;99.90;;;;;;5094892;28;20171;-73
2023/12/31 00:58:59;;;;;;;1.97;1.87;;;9.90;99.90;;;;;;5095113;28;20192;-74
2023/12/31 01:01:24;;;;;;;4.70;1.87;;;9.90;99.90;;;;;;5094812;28;20183;-73
2023/12/31 01:03:51;;;;;;;2.57;1.60;;;10.00;99.90;;;;;;5094594;28;20218;-74
2023/12/31 01:06:16;;;;;;;2.63;1.80;;;10.00;99.90;;;;;;5094888;28;20254;-73
2023/12/31 01:08:42;;;;;;;2.43;1.90;;;10.00;99.90;;;;;;5094382;28;20199;-73
2023/12/31 01:11:07;;;;;;;2.30;1.70;;;10.00;99.90;;;;;;5094680;28;20184;-73
2023/12/31 01:13:33;;;;;;;2.10;1.83;;;10.00;99.90;;;;;;5076392;28;20226;-72
2023/12/31 01:15:58;;;;;;;3.83;1.90;;;9.90;99.90;;;;;;5094619;28;20627;-73
2023/12/31 01:18:24;;;;;;;2.33;1.90;;;9.90;99.90;;;;;;5094461;28;20199;-75
2023/12/31 01:20:50;;;;;;;2.53;1.63;;;9.90;99.90;;;;;;5094264;28;20175;-72
2023/12/31 01:23:15;;;;;;;2.33;1.70;;;10.00;99.90;;;;;;5075342;28;20299;-73
2023/12/31 01:25:42;;;;;;;3.73;1.80;;;10.00;99.90;;;;;;5094434;28;20168;-73
2023/12/31 01:28:07;;;;;;;1.83;1.73;;;10.00;99.90;;;;;;5094102;28;20212;-73
2023/12/31 01:30:33;;;;;;;2.50;1.77;;;10.00;99.90;;;;;;5094630;28;20217;-74
2023/12/31 01:32:58;;;;;;;3.27;1.97;;;10.10;99.90;;;;;;5094119;28;20182;-74
2023/12/31 01:35:24;;;;;;;3.47;1.97;;;10.10;99.90;;;;;;5094213;28;20172;-72
2023/12/31 01:37:50;;;;;;;1.70;1.60;;;10.10;99.90;;;;;;5093816;28;20175;-72
2023/12/31 01:40:15;;;;;;;2.50;2.10;;;10.10;99.90;;;;;;5076040;28;20682;-72
2023/12/31 01:42:41;;;;;;;2.00;1.90;;;10.10;99.90;;;;;;5094008;28;20549;-73
2023/12/31 01:45:07;;;;;;;2.53;1.80;;;10.10;99.90;;;;;;5093998;28;20510;-72
2023/12/31 01:47:34;;;;;;;2.53;2.10;;;10.10;99.90;;;;;;5093859;28;20183;-73
2023/12/31 01:50:02;;;;;;;1.90;1.80;;;10.10;99.90;;;;;;5094184;28;20179;-73
2023/12/31 01:52:28;;;;;;;3.33;2.10;;;10.20;99.90;;;;;;5093743;28;20247;-74
2023/12/31 01:54:54;;;;;;;2.03;1.93;;;10.30;99.90;;;;;;5093921;28;20686;-73
2023/12/31 01:57:27;;;;;;;1.63;1.53;;;10.20;99.90;;;;;;5093765;28;20168;-72
2023/12/31 01:59:55;;;;;;;2.07;1.80;;;10.20;99.90;;;;;;5093847;28;20172;-73
2023/12/31 02:02:21;;;;;;;2.37;2.13;;;10.20;99.90;;;;;;5093696;28;20164;-73
2023/12/31 02:04:48;;;;;;;2.10;2.00;;;10.20;99.90;;;;;;5093845;28;20267;-73
2023/12/31 02:07:14;;;;;;;2.20;2.00;;;10.30;99.90;;;;;;5093440;28;20289;-73
2023/12/31 02:09:40;;;;;;;4.00;3.17;;;10.20;99.90;;;;;;5093625;28;20224;-73
2023/12/31 02:12:06;;;;;;;5.87;3.63;;;10.20;99.90;;;;;;5093680;28;20595;-73
2023/12/31 02:14:32;;;;;;;2.03;1.90;;;10.20;99.90;;;;;;5093512;28;20652;-74
2023/12/31 02:16:58;;;;;;;2.93;1.90;;;10.20;99.90;;;;;;5093525;28;20171;-75
2023/12/31 02:19:23;;;;;;;3.77;2.97;;;10.20;99.90;;;;;;5093679;28;20533;-73
2023/12/31 02:21:49;;;;;;;2.40;2.20;;;10.20;99.90;;;;;;5093306;28;20240;-73
2023/12/31 02:24:18;;;;;;;1.87;1.57;;;10.30;99.90;;;;;;5075269;28;20212;-73
2023/12/31 02:26:44;;;;;;;3.47;2.40;;;10.30;99.90;;;;;;5093418;28;20183;-73
2023/12/31 02:29:09;;;;;;;2.10;1.93;;;10.30;99.90;;;;;;5093145;28;20227;-73
2023/12/31 02:31:35;;;;;;;2.03;1.93;;;10.30;99.90;;;;;;5093496;28;20172;-73
2023/12/31 02:34:01;;;;;;;2.67;1.80;;;10.30;99.90;;;;;;5092999;28;20168;-74
2023/12/31 02:36:26;;;;;;;3.13;2.70;;;10.30;99.90;;;;;;5093086;28;20305;-73
2023/12/31 02:38:52;;;;;;;2.10;2.00;;;10.30;99.90;;;;;;5093316;28;20193;-73
2023/12/31 02:41:18;;;;;;;2.40;2.20;;;10.30;99.90;;;;;;5093349;28;20164;-73
2023/12/31 02:43:44;;;;;;;2.00;1.80;;;10.30;99.90;;;;;;5074961;28;20219;-73
2023/12/31 02:46:09;;;;;;;1.77;1.67;;;10.30;99.90;;;;;;5075099;28;20692;-74
2023/12/31 02:48:35;;;;;;;1.80;1.70;;;10.30;99.90;;;;;;5075132;28;20179;-73
2023/12/31 02:51:00;;;;;;;3.03;2.03;;;10.40;99.90;;;;;;5092876;28;20171;-73
2023/12/31 02:53:26;;;;;;;2.93;1.67;;;10.40;99.90;;;;;;5093115;28;20184;-74
2023/12/31 02:55:52;;;;;;;2.07;1.97;;;10.40;99.90;;;;;;5093077;28;20204;-74
2023/12/31 02:58:17;;;;;;;1.77;1.67;;;10.40;99.90;;;;;;5093119;28;20623;-74
2023/12/31 03:00:43;;;;;;;2.50;1.87;;;10.40;99.90;;;;;;5075058;28;20527;-74
2023/12/31 03:03:08;;;;;;;3.20;1.97;;;10.40;99.90;;;;;;5093008;28;20291;-73
2023/12/31 03:05:34;;;;;;;1.67;1.57;;;10.50;99.90;;;;;;5092726;28;20175;-73
2023/12/31 03:08:00;;;;;;;3.10;1.70;;;10.50;99.90;;;;;;5093145;28;20216;-73
2023/12/31 03:10:26;;;;;;;2.00;1.90;;;10.50;99.90;;;;;;5092899;28;20219;-72
2023/12/31 03:12:52;;;;;;;1.77;1.60;;;10.50;99.90;;;;;;5092952;28;20172;-73
2023/12/31 03:15:19;;;;;;;2.87;2.60;;;10.50;99.90;;;;;;5092975;28;20184;-74
2023/12/31 03:17:44;;;;;;;1.80;1.70;;;10.50;99.90;;;;;;5092912;28;20164;-73
2023/12/31 03:20:10;;;;;;;1.70;1.60;;;10.50;99.90;;;;;;5092655;28;20176;-73
2023/12/31 03:22:36;;;;;;;4.43;3.50;;;10.50;99.90;;;;;;5092808;28;20241;-72
2023/12/31 03:25:02;;;;;;;2.17;2.00;;;10.50;99.90;;;;;;5092871;28;20647;-72
2023/12/31 03:27:27;;;;;;;2.40;1.70;;;10.50;99.90;;;;;;5074688;28;20176;-73
2023/12/31 03:29:53;;;;;;;1.97;1.77;;;10.60;99.90;;;;;;5092495;28;20767;-73
2023/12/31 03:32:18;;;;;;;2.63;2.13;;;10.70;99.90;;;;;;5092983;28;20179;-74
2023/12/31 03:34:44;;;;;;;2.30;1.90;;;10.50;99.90;;;;;;5092389;28;20176;-72
2023/12/31 03:37:10;;;;;;;1.90;1.80;;;10.60;99.90;;;;;;5092669;28;20623;-73
2023/12/31 03:39:35;;;;;;;2.90;2.00;;;10.60;99.90;;;;;;5093003;28;20623;-73
2023/12/31 03:42:01;;;;;;;2.07;1.97;;;10.60;99.90;;;;;;5092598;28;20167;-73
2023/12/31 03:44:26;;;;;;;2.10;2.00;;;10.60;99.90;;;;;;5092605;28;20269;-74
2023/12/31 03:46:52;;;;;;;2.10;1.90;;;10.60;99.90;;;;;;5078224;28;20179;-73
2023/12/31 03:49:17;;;;;;;1.97;1.87;;;10.60;99.90;;;;;;5095919;28;20186;-73
2023/12/31 03:51:43;;;;;;;2.57;2.13;;;10.60;99.90;;;;;;5078299;28;20255;-74
2023/12/31 03:54:09;;;;;;;3.23;2.10;;;10.60;99.90;;;;;;5096610;28;20168;-73
2023/12/31 03:56:34;;;;;;;2.23;2.13;;;10.60;99.90;;;;;;5096061;28;20266;-73
2023/12/31 03:59:00;;;;;;;3.20;2.23;;;10.70;99.90;;;;;;5096015;28;20204;-72
2023/12/31 04:01:25;;;;;;;4.00;2.23;;;10.60;99.90;;;;;;5096174;28;20171;-73
2023/12/31 04:03:51;;;;;;;2.43;2.23;;;10.60;99.90;;;;;;5095922;28;20272;-73
2023/12/31 04:06:16;;;;;;;3.40;2.20;;;10.60;99.90;;;;;;5077687;28;20183;-73
2023/12/31 04:08:42;;;;;;;2.47;2.03;;;10.60;99.90;;;;;;5096051;28;20182;-73
2023/12/31 04:11:07;;;;;;;2.40;2.20;;;10.60;99.90;;;;;;5077780;28;20188;-73
2023/12/31 04:13:33;;;;;;;2.80;2.60;;;10.70;99.90;;;;;;5095586;28;20168;-72
2023/12/31 04:15:59;;;;;;;2.00;1.90;;;10.60;99.90;;;;;;5095588;28;20164;-73
2023/12/31 04:18:24;;;;;;;2.47;2.27;;;10.70;99.90;;;;;;5095751;28;20168;-73
2023/12/31 04:20:50;;;;;;;2.50;2.27;;;10.70;99.90;;;;;;5095672;28;20203;-73
2023/12/31 04:23:15;;;;;;;2.50;2.33;;;10.70;99.90;;;;;;5095585;28;20221;-73
2023/12/31 04:25:41;;;;;;;2.40;2.27;;;10.70;99.90;;;;;;5095644;28;20183;-73
2023/12/31 04:28:07;;;;;;;2.60;2.40;;;10.80;99.90;;;;;;5077116;28;20230;-74
2023/12/31 04:30:32;;;;;;;2.60;2.40;;;10.70;99.90;;;;;;5095338;28;20538;-73
2023/12/31 04:32:58;;;;;;;2.53;2.23;;;10.80;99.90;;;;;;5094962;28;20494;-73
2023/12/31 04:35:24;;;;;;;3.67;2.47;;;10.80;99.90;;;;;;5095337;28;20199;-73
2023/12/31 04:37:49;;;;;;;2.87;2.43;;;10.80;99.90;;;;;;5095031;28;20199;-74
2023/12/31 04:40:15;;;;;;;2.80;2.50;;;10.80;99.90;;;;;;5094954;28;20187;-73
2023/12/31 04:42:40;;;;;;;2.70;2.50;;;10.90;99.90;;;;;;5094726;28;20200;-73
2023/12/31 04:45:09;;;;;;;2.13;2.00;;;10.80;99.90;;;;;;5094700;28;20692;-72
2023/12/31 04:47:35;;;;;;;2.37;2.17;;;10.90;99.90;;;;;;5094793;28;20172;-74
2023/12/31 04:50:00;;;;;;;3.93;2.40;;;10.90;99.90;;;;;;5094681;28;20182;-73
2023/12/31 04:52:26;;;;;;;2.03;1.93;;;10.80;99.90;;;;;;5095055;28;20627;-73
2023/12/31 04:54:51;;;;;;;2.53;2.43;;;10.80;99.90;;;;;;5094896;28;20171;-73
2023/12/31 04:57:17;;;;;;;2.13;2.03;;;10.80;99.90;;;;;;5093884;28;20171;-73
2023/12/31 04:59:43;;;;;;;2.83;2.50;;;10.80;99.90;;;;;;5094765;28;20229;-73
2023/12/31 05:02:08;;;;;;;2.70;2.50;;;10.80;99.90;;;;;;5094471;28;20642;-73
2023/12/31 05:04:34;;;;;;;3.13;2.50;;;10.80;99.90;;;;;;5094659;28;20215;-73
2023/12/31 05:06:59;;;;;;;4.23;2.80;;;10.80;99.90;;;;;;5094227;28;20232;-73
2023/12/31 05:09:25;;;;;;;2.50;2.30;;;10.90;99.90;;;;;;5094343;28;20195;-74
2023/12/31 05:11:50;;;;;;;2.50;2.30;;;10.90;99.90;;;;;;5094380;28;20161;-74
2023/12/31 05:14:16;;;;;;;2.37;2.17;;;10.90;99.90;;;;;;5094401;28;20160;-74
2023/12/31 05:16:42;;;;;;;2.63;2.40;;;10.90;99.90;;;;;;5093978;28;20164;-73
2023/12/31 05:19:07;;;;;;;2.33;2.13;;;10.80;99.90;;;;;;5094448;28;20646;-72
2023/12/31 05:21:33;;;;;;;3.10;2.20;;;10.80;99.90;;;;;;5094488;28;20639;-74
2023/12/31 05:24:00;;;;;;;2.03;1.93;;;10.90;99.90;;;;;;5094245;28;20268;-73
2023/12/31 05:26:25;;;;;;;2.40;2.20;;;10.90;99.90;;;;;;5094362;28;20168;-73
2023/12/31 05:28:52;;;;;;;2.83;2.23;;;10.90;99.90;;;;;;5094151;28;20230;-73
2023/12/31 05:31:17;;;;;;;2.53;2.33;;;11.00;99.90;;;;;;5093978;28;20176;-73
2023/12/31 05:33:44;;;;;;;2.17;2.00;;;11.00;99.90;;;;;;5094158;28;20264;-73
2023/12/31 05:36:10;;;;;;;2.50;2.20;;;11.00;99.90;;;;;;5093887;28;20262;-73
2023/12/31 05:38:36;;;;;;;2.73;2.10;;;11.10;99.90;;;;;;5094181;28;20243;-73
2023/12/31 05:41:02;;;;;;;3.67;2.10;;;11.10;99.90;;;;;;5093996;28;20171;-73
2023/12/31 05:43:27;;;;;;;2.20;2.00;;;11.20;99.90;;;;;;5093748;28;20207;-72
2023/12/31 05:45:53;;;;;;;1.90;1.80;;;11.20;99.90;;;;;;5093555;28;20532;-73
2023/12/31 05:48:19;;;;;;;2.00;1.90;;;11.20;99.90;;;;;;5093970;28;20172;-74
2023/12/31 05:50:44;;;;;;;2.03;1.90;;;11.30;99.90;;;;;;5093253;28;20168;-72
2023/12/31 05:53:10;;;;;;;2.30;2.10;;;11.40;99.90;;;;;;5093697;28;20194;-72
2023/12/31 05:55:35;;;;;;;1.50;1.40;;;11.40;99.90;;;;;;5093819;28;20653;-73
2023/12/31 05:58:01;;;;;;;3.50;1.80;;;11.40;99.90;;;;;;5093695;28;20164;-73
2023/12/31 06:00:27;;;;;;;2.37;2.10;;;11.50;99.90;;;;;;5075232;28;20171;-73
2023/12/31 06:02:52;;;;;;;2.30;1.80;;;11.50;99.90;;;;;;5093480;28;20725;-72
2023/12/31 06:05:18;;;;;;;2.10;2.00;;;11.40;99.90;;;;;;5093650;28;20196;-73
2023/12/31 06:07:44;;;;;;;1.90;1.80;;;11.50;99.90;;;;;;5093118;28;20172;-73
2023/12/31 06:10:09;;;;;;;2.10;1.90;;;11.50;99.90;;;;;;5075395;28;20242;-73
2023/12/31 06:12:36;;;;;;;1.90;1.80;;;11.60;99.90;;;;;;5093274;28;20175;-73
2023/12/31 06:15:06;;;;;;;1.90;1.80;;;11.50;99.90;;;;;;5093350;28;20175;-73
2023/12/31 06:17:32;;;;;;;1.83;1.73;;;11.60;99.90;;;;;;5093434;28;20233;-73
2023/12/31 06:19:57;;;;;;;2.30;2.20;;;11.60;99.90;;;;;;5093351;28;20646;-73
2023/12/31 06:22:23;;;;;;;1.90;1.80;;;11.60;99.90;;;;;;5092912;28;20212;-73
2023/12/31 06:24:49;;;;;;;2.67;2.27;;;11.60;99.90;;;;;;5093207;28;20256;-73
2023/12/31 06:27:14;;;;;;;1.90;1.80;;;11.60;99.90;;;;;;5093019;28;20630;-73
2023/12/31 06:29:40;;;;;;;1.83;1.63;;;11.60;99.90;;;;;;5092600;28;20228;-74
2023/12/31 06:32:06;;;;;;;1.90;1.80;;;11.60;99.90;;;;;;5093276;28;20164;-73
2023/12/31 06:34:31;;;;;;;2.20;1.70;;;11.60;99.90;;;;;;5093120;28;20172;-73
2023/12/31 06:36:57;;;;;;;2.07;1.97;;;11.60;99.90;;;;;;5093261;28;20258;-73
2023/12/31 06:39:22;;;;;;;1.80;1.70;;;11.60;99.90;;;;;;5092975;28;20180;-73
2023/12/31 06:41:49;;;;;;;1.90;1.80;;;11.60;99.90;;;;;;5092932;28;20168;-73
2023/12/31 06:44:15;;;;;;;2.70;1.83;;;11.70;99.90;;;;;;5092831;28;20238;-73
2023/12/31 06:46:40;;;;;;;1.73;1.63;;;11.70;99.90;;;;;;5093011;28;20172;-73
2023/12/31 06:49:06;;;;;;;2.50;1.80;;;11.70;99.90;;;;;;5092777;28;20182;-73
2023/12/31 06:51:31;;;;;;;3.37;2.20;;;11.70;99.90;;;;;;5092908;28;20255;-72
2023/12/31 06:53:58;;;;;;;2.20;2.00;;;11.60;99.90;;;;;;5092544;28;20214;-73
2023/12/31 06:56:23;;;;;;;2.00;1.77;;;11.60;99.90;;;;;;5092550;28;20229;-73
2023/12/31 06:58:50;;;;;;;1.60;1.50;;;11.60;99.90;;;;;;5092767;28;20202;-73
2023/12/31 07:01:16;;;;;;;1.97;1.87;;;11.60;99.90;;;;;;5092889;28;20516;-73
2023/12/31 07:03:42;;;;;;;2.10;1.70;;;11.60;99.90;;;;;;5074453;28;20214;-73
2023/12/31 07:06:08;;;;;;;2.30;1.90;;;11.60;99.90;;;;;;5092643;28;20172;-73
2023/12/31 07:08:34;;;;;;;1.80;1.70;;;11.60;99.90;;;;;;5092958;28;20271;-73
2023/12/31 07:11:00;;;;;;;1.60;1.50;;;11.60;99.90;;;;;;5092605;28;20188;-73
2023/12/31 07:13:25;;;;;;;1.40;1.30;;;11.50;99.90;;;;;;5092537;28;20187;-73
2023/12/31 07:15:51;;;;;;;1.40;1.30;;;11.50;99.90;;;;;;5092446;28;20188;-74
2023/12/31 07:18:17;;;;;;;1.60;1.50;;;11.40;99.90;;;;;;5092848;28;20179;-74
2023/12/31 07:20:42;;;;;;;1.43;1.33;;;11.40;99.90;;;;;;5096480;28;20287;-73
2023/12/31 07:23:08;;;;;;;1.70;1.60;;;11.40;99.90;;;;;;5096223;28;20655;-73
2023/12/31 07:25:33;;;;;;;1.50;1.40;;;11.40;99.90;;;;;;5096006;28;20209;-72
2023/12/31 07:27:59;;;;;;;1.40;1.30;;;11.40;99.90;;;;;;5096094;28;20235;-73
2023/12/31 07:30:25;;;;;;;2.00;1.50;;;11.40;99.90;;;;;;5096903;28;20622;-75
2023/12/31 07:32:51;;;;;;;1.67;1.57;;;11.30;99.90;;;;;;5096556;28;20620;-73
2023/12/31 07:35:16;;;;;;;3.73;1.60;;;11.30;99.90;;;;;;5096462;28;20258;-73
2023/12/31 07:37:42;;;;;;;1.40;1.30;;;11.20;99.90;;;;;;5096287;28;20534;-73
2023/12/31 07:40:09;;;;;;;1.50;1.40;;;11.10;99.90;;;;;;5095764;28;20171;-73
2023/12/31 07:42:35;;;;;;;1.83;1.20;;;11.00;99.90;;;;;;5096049;28;20568;-73
2023/12/31 07:45:05;;;;;;;1.43;1.33;;;10.90;99.90;;;;;;5096018;28;20261;-73
2023/12/31 07:47:35;;;;;;;2.47;1.50;;;10.90;99.90;;;;;;5096511;28;20233;-74
2023/12/31 07:50:04;;;;;;;1.20;1.20;;;10.80;99.90;;;;;;5095624;28;20160;-73
2023/12/31 07:52:30;;;;;;;1.40;1.30;;;10.80;99.90;;;;;;5096151;28;20172;-72
2023/12/31 07:54:56;;;;;;;2.13;1.43;;;10.80;99.90;;;;;;5095588;28;20660;-72
2023/12/31 07:57:21;;;;;;;1.03;1.03;;;10.70;99.90;;;;;;5095867;28;20176;-73
2023/12/31 07:59:47;;;;;;;1.40;1.30;;;10.80;99.90;;;;;;5095981;28;20172;-73
2023/12/31 08:02:13;;;;;;;1.50;1.10;;;10.70;99.90;;;;;;5095945;28;20254;-73
2023/12/31 08:04:38;;;;;;;1.33;1.10;;;10.70;99.90;;;;;;5095489;28;20196;-73
2023/12/31 08:07:04;;;;;;;1.87;1.20;;;10.70;99.90;;;;;;5077676;28;20182;-73
2023/12/31 08:09:30;;;;;;;1.27;1.27;;;10.60;99.90;;;;;;5077187;28;20222;-73
2023/12/31 08:11:55;;;;;;;1.00;0.90;;;10.60;99.90;;;;;;5095442;28;20172;-73
2023/12/31 08:14:22;;;;;;;1.13;0.97;;;10.50;99.90;;;;;;5095576;28;20186;-73
2023/12/31 08:16:47;;;;;;;3.47;1.30;;;10.50;99.90;;;;;;5095719;28;20178;-73
2023/12/31 08:19:13;;;;;;;2.23;1.20;;;10.50;99.90;;;;;;5095559;28;20180;-73
2023/12/31 08:21:39;;;;;;;3.60;1.30;;;10.50;99.90;;;;;;5077190;28;20199;-73
2023/12/31 08:24:06;;;;;;;1.20;1.07;;;10.50;99.90;;;;;;5095116;28;20543;-74
2023/12/31 08:26:31;;;;;;;2.47;1.20;;;10.40;99.90;;;;;;5095048;28;20172;-74
2023/12/31 08:28:59;;;;;;;2.13;0.90;;;10.30;99.90;;;;;;5095083;28;20235;-74
2023/12/31 08:31:25;;;;;;;1.67;1.10;;;10.30;99.90;;;;;;5095093;28;20218;-74
2023/12/31 08:33:50;;;;;;;3.47;1.00;;;10.30;99.90;;;;;;5094864;28;20199;-74
2023/12/31 08:36:16;;;;;;;1.93;1.07;;;10.30;99.90;;;;;;5095012;28;20171;-74
2023/12/31 08:38:41;;;;;;;2.43;1.03;;;10.40;99.90;;;;;;5094576;28;20172;-74
2023/12/31 08:41:07;;;;;;;1.13;1.10;;;10.40;99.90;;;;;;5095010;28;20247;-74
2023/12/31 08:43:32;;;;;;;1.47;1.10;;;10.40;99.90;;;;;;5094563;28;20211;-73
2023/12/31 08:45:58;;;;;;;2.33;1.17;;;10.40;99.90;;;;;;5094818;28;20168;-73
2023/12/31 08:48:23;;;;;;;1.17;1.03;;;10.40;99.90;;;;;;5095232;28;20225;-74
2023/12/31 08:50:49;;;;;;;3.00;1.00;;;10.40;99.90;;;;;;5094668;28;20183;-74
2023/12/31 08:53:15;;;;;;;0.90;0.90;;;10.40;99.90;;;;;;5094391;28;20183;-73
2023/12/31 08:55:40;;;;;;;1.20;0.77;;;10.40;99.90;;;;;;5095056;28;20623;-74
2023/12/31 08:58:06;;;;;;;1.00;0.80;;;10.40;99.90;;;;;;5094628;28;20179;-75
2023/12/31 09:00:31;;;;;;;1.23;0.90;;;10.40;99.90;;;;;;5076320;28;20706;-74
2023/12/31 09:02:57;;;;;;;2.43;1.20;;;10.50;99.90;;;;;;5094269;28;20679;-73
2023/12/31 09:05:23;;;;;;;1.07;0.97;;;10.50;99.90;;;;;;5076380;28;20516;-73
2023/12/31 09:07:49;;;;;;;4.07;0.90;;;10.50;99.90;;;;;;5094345;28;20172;-73
2023/12/31 09:10:15;;;;;;;1.77;1.17;;;10.50;99.90;;;;;;5094482;28;20689;-74
2023/12/31 09:12:41;;;;;;;1.07;0.97;;;10.50;99.90;;;;;;5094035;28;20164;-74
2023/12/31 09:15:07;;;;;;;1.40;1.00;;;10.50;99.90;;;;;;5094263;28;20176;-74
2023/12/31 09:17:35;;;;;;;2.73;1.13;;;10.40;99.90;;;;;;5093971;28;20172;-73
2023/12/31 09:20:04;;;;;;;1.10;0.90;;;10.40;99.90;;;;;;5094697;28;20156;-73
2023/12/31 09:22:31;;;;;;;2.83;1.20;;;10.40;99.90;;;;;;5093529;28;20526;-74
2023/12/31 09:24:56;;;;;;;2.10;1.03;;;10.40;99.90;;;;;;5094181;28;20171;-73
2023/12/31 09:27:22;;;;;;;2.90;1.00;;;10.30;99.90;;;;;;5094080;28;20176;-73
2023/12/31 09:29:47;;;;;;;6.40;1.23;;;10.20;99.90;;;;;;5075693;28;20565;-74
2023/12/31 09:32:13;;;;;;;1.47;0.93;;;10.20;99.90;;;;;;5093763;28;20180;-73
2023/12/31 09:34:39;;;;;;;3.67;1.23;;;10.00;99.90;;;;;;5094141;28;20164;-73
2023/12/31 09:37:04;;;;;;;2.40;1.13;;;9.90;99.90;;;;;;5093281;28;20192;-73
2023/12/31 09:39:30;;;;;;;1.53;1.33;;;9.90;99.90;;;;;;5093572;28;20168;-74
2023/12/31 09:42:01;;;;;;;2.43;1.20;;;9.80;99.90;;;;;;5093123;28;20180;-73
2023/12/31 09:44:27;;;;;;;2.13;1.53;;;9.90;99.90;;;;;;5093316;28;20199;-72
2023/12/31 09:47:08;;;;;;;4.37;1.53;;;9.80;99.90;;;;;;5093755;28;20188;-73
2023/12/31 09:49:37;;;;;;;2.27;1.27;;;9.90;99.90;;;;;;5092835;28;20172;-73
2023/12/31 09:52:04;;;;;;;1.50;1.30;;;9.90;99.90;;;;;;5093224;28;20213;-73
2023/12/31 09:54:37;;;;;;;3.10;1.40;;;10.00;99.90;;;;;;5093572;28;20172;-74
2023/12/31 09:57:04;;;;;;;4.37;1.80;;;10.10;99.90;;;;;;5093464;28;20163;-73
2023/12/31 09:59:30;;;;;;;2.83;1.50;;;10.20;99.90;;;;;;5093364;28;20548;-72
2023/12/31 10:02:05;;;;;;;2.47;1.27;;;10.20;99.90;;;;;;5093699;28;20172;-74
2023/12/31 10:04:32;;;;;;;3.80;1.40;;;10.20;99.90;;;;;;5092552;28;20356;-74
2023/12/31 10:06:58;;;;;;;2.80;1.30;;;10.20;99.90;;;;;;5093239;28;20168;-73
2023/12/31 10:09:27;;;;;;;1.70;1.60;;;10.20;99.90;;;;;;5074684;28;20196;-73
2023/12/31 10:11:54;;;;;;;2.10;1.67;;;10.20;99.90;;;;;;5093132;28;20172;-72
2023/12/31 10:14:21;;;;;;;1.73;1.40;;;10.20;99.90;;;;;;5093283;28;20269;-74
2023/12/31 10:16:47;;;;;;;2.57;1.10;;;10.10;99.90;;;;;;5075099;28;20172;-74
2023/12/31 10:19:13;;;;;;;2.37;1.23;;;10.10;99.90;;;;;;5093094;28;20176;-73
2023/12/31 10:21:41;;;;;;;1.90;0.87;;;10.10;99.90;;;;;;5074357;28;20350;-73
2023/12/31 10:24:07;;;;;;;2.43;1.30;;;10.10;99.90;;;;;;5092967;28;20200;-72
2023/12/31 10:26:33;;;;;;;1.67;1.27;;;10.30;99.90;;;;;;5093086;28;20172;-73
2023/12/31 10:28:59;;;;;;;1.43;1.17;;;10.30;99.90;;;;;;5092689;28;20227;-73
2023/12/31 10:31:30;;;;;;;3.43;0.90;;;10.40;99.90;;;;;;5093257;28;20206;-73
2023/12/31 10:33:56;;;;;;;2.00;1.13;;;10.30;99.90;;;;;;5092970;28;20171;-73
2023/12/31 10:36:24;;;;;;;4.40;1.30;;;10.20;99.90;;;;;;5092537;28;20160;-73
2023/12/31 10:38:51;;;;;;;2.60;1.10;;;10.20;99.90;;;;;;5092588;28;20171;-73
2023/12/31 10:41:21;;;;;;;3.63;1.17;;;10.20;99.90;;;;;;5092975;28;20207;-74
2023/12/31 10:43:50;;;;;;;2.03;1.07;;;10.20;99.90;;;;;;5092623;28;20231;-73
2023/12/31 10:46:18;;;;;;;1.10;0.93;;;10.20;99.90;;;;;;5074546;28;20176;-73
2023/12/31 10:49:01;;;;;;;4.27;1.10;;;10.20;99.90;;;;;;5073927;28;20180;-74
2023/12/31 10:51:26;;;;;;;3.60;1.30;;;10.30;99.90;;;;;;5092575;28;20168;-73
2023/12/31 10:53:58;;;;;;;6.07;1.50;;;10.30;99.90;;;;;;5093410;28;20168;-74
2023/12/31 10:56:27;;;;;;;4.17;1.23;;;10.20;99.90;;;;;;5096640;28;20233;-74
2023/12/31 10:58:55;;;;;;;5.00;1.47;;;10.10;99.90;;;;;;5096810;28;20220;-74
2023/12/31 11:01:24;;;;;;;5.13;1.93;;;10.00;99.90;;;;;;5096243;28;20204;-74
2023/12/31 11:03:52;;;;;;;6.83;1.30;;;10.00;99.90;;;;;;5096184;28;20196;-74
2023/12/31 11:06:18;;;;;;;4.23;1.07;;;9.90;99.90;;;;;;5096328;28;20202;-73
2023/12/31 11:08:46;;;;;;;5.23;1.67;;;9.90;99.90;;;;;;5096974;28;20274;-74
2023/12/31 11:11:13;;;;;;;4.67;1.27;;;9.90;99.90;;;;;;5096227;28;20310;-74
2023/12/31 11:13:43;;;;;;;5.50;1.30;;;9.80;99.90;;;;;;5096387;28;20199;-73
2023/12/31 11:16:35;;;;;;;5.13;1.50;;;9.80;99.90;;;;;;5096572;28;20249;-72
2023/12/31 11:19:22;;;;;;;2.87;1.20;;;9.80;99.90;;;;;;5095881;28;20179;-73
2023/12/31 11:22:01;;;;;;;6.30;1.70;;;9.80;99.90;;;;;;5055310;28;20635;-73
2023/12/31 11:24:27;;;;;;;3.27;1.40;;;9.90;99.90;;;;;;5095893;28;20674;-74
2023/12/31 11:27:15;;;;;;;3.43;1.20;;;9.90;99.90;;;;;;5077617;28;20262;-72
2023/12/31 11:29:41;;;;;;;3.07;1.30;;;9.90;99.90;;;;;;5096241;28;20239;-72
2023/12/31 11:32:08;;;;;;;1.53;1.33;;;9.90;99.90;;;;;;5096134;28;20211;-72
2023/12/31 11:34:39;;;;;;;3.00;1.10;;;9.90;99.90;;;;;;5096437;28;20207;-72
2023/12/31 11:37:06;;;;;;;3.30;1.23;;;9.90;99.90;;;;;;5095016;28;20164;-72
2023/12/31 11:39:32;;;;;;;2.83;1.00;;;9.80;99.90;;;;;;5095514;28;20250;-73
2023/12/31 11:42:18;;;;;;;3.40;1.23;;;9.80;99.90;;;;;;5077292;28;20211;-72
2023/12/31 11:44:44;;;;;;;2.50;1.07;;;10.00;99.90;;;;;;5095216;28;20234;-73
2023/12/31 11:47:16;;;;;;;2.60;1.07;;;10.00;99.90;;;;;;5095778;28;20164;-73
2023/12/31 11:49:52;;;;;;;2.60;1.23;;;10.10;99.90;;;;;;5095903;28;20175;-74
2023/12/31 11:52:31;;;;;;;5.13;1.30;;;10.20;99.90;;;;;;5095814;28;20171;-73
2023/12/31 11:55:01;;;;;;;3.83;1.50;;;10.20;99.90;;;;;;5096125;28;20261;-73
2023/12/31 11:57:27;;;;;;;2.30;1.13;;;10.20;99.90;;;;;;5095675;28;20247;-73
2023/12/31 11:59:53;;;;;;;4.73;1.67;;;10.20;99.90;;;;;;5095571;28;20203;-72
2023/12/31 12:02:20;;;;;;;5.00;1.50;;;10.10;99.90;;;;;;5094931;28;20650;-73
2023/12/31 12:04:46;;;;;;;3.93;1.60;;;10.10;99.90;;;;;;5095361;28;20235;-73
2023/12/31 12:07:13;;;;;;;5.23;1.90;;;10.10;99.90;;;;;;5094508;28;20223;-73
2023/12/31 12:09:39;;;;;;;4.93;2.03;;;10.20;99.90;;;;;;5095427;28;20253;-73
2023/12/31 12:12:06;;;;;;;4.80;1.80;;;10.30;99.90;;;;;;5095372;28;20619;-72
2023/12/31 12:14:33;;;;;;;5.83;2.17;;;10.20;99.90;;;;;;5095236;28;20176;-73
2023/12/31 12:17:00;;;;;;;9.70;2.13;;;10.20;99.90;;;;;;5095110;28;20160;-73
2023/12/31 12:19:26;;;;;;;6.43;1.80;;;10.20;99.90;;;;;;5094849;28;20690;-73
2023/12/31 12:21:52;;;;;;;13.73;2.47;;;10.20;99.90;;;;;;5095135;28;20254;-73
2023/12/31 12:24:18;;;;;;;6.63;2.43;;;10.20;99.90;;;;;;5093492;28;20730;-72
2023/12/31 12:26:48;;;;;;;6.40;2.10;;;10.30;99.90;;;;;;5094349;28;20180;-73
2023/12/31 12:29:17;;;;;;;7.03;1.90;;;10.40;99.90;;;;;;5059979;28;20290;-74
2023/12/31 12:31:46;;;;;;;5.50;1.80;;;10.50;99.90;;;;;;5054670;28;20178;-73
2023/12/31 12:34:16;;;;;;;8.53;2.23;;;10.50;99.90;;;;;;5053678;28;20535;-72
2023/12/31 12:36:46;;;;;;;7.20;2.67;;;10.50;99.90;;;;;;5054468;28;20205;-73
2023/12/31 12:39:16;;;;;;;8.97;2.20;;;10.60;99.90;;;;;;5054909;28;20170;-73
2023/12/31 12:41:48;;;;;;;10.33;2.50;;;10.60;99.90;;;;;;5054035;28;20188;-73
2023/12/31 12:44:14;;;;;;;7.10;2.20;;;10.70;99.90;;;;;;5054653;28;20213;-74